createdAt,value
2023-07-02T00:02:12.597Z,2.50
2023-07-02T00:08:16.760Z,3.05
2023-07-02T00:11:19.190Z,2.80
2023-07-02T00:14:22.900Z,3.63
2023-07-02T00:17:25.087Z,3.55
2023-07-02T00:20:27.050Z,3.60
2023-07-02T00:26:33.902Z,3.83
2023-07-02T00:32:39.350Z,3.75
2023-07-02T00:35:41.231Z,3.63
2023-07-02T00:38:45.596Z,3.67
2023-07-02T00:41:47.683Z,3.75
2023-07-02T00:44:53.639Z,4.70
2023-07-02T00:47:56.432Z,4.35
2023-07-02T00:50:58.822Z,4.18
2023-07-02T00:54:00.858Z,5.13
2023-07-02T01:00:09.871Z,5.40
2023-07-02T01:03:12.904Z,5.88
2023-07-02T01:06:16.854Z,6.88
2023-07-02T01:09:19.126Z,5.97
2023-07-02T01:12:22.563Z,6.60
2023-07-02T01:15:26.947Z,6.60
2023-07-02T01:18:31.172Z,6.40
2023-07-02T01:21:35.577Z,6.72
2023-07-02T01:24:38.014Z,5.72
2023-07-02T01:27:40.130Z,6.35
2023-07-02T01:30:42.721Z,5.78
2023-07-02T01:33:45.315Z,5.88
2023-07-02T01:39:50.704Z,6.07
2023-07-02T01:42:52.555Z,5.60
2023-07-02T01:45:57.270Z,5.93
2023-07-02T01:49:01.729Z,6.30
2023-07-02T01:52:06.242Z,6.18
2023-07-02T01:55:09.363Z,5.70
2023-07-02T01:58:11.298Z,5.97
2023-07-02T02:04:15.339Z,6.57
2023-07-02T02:07:18.633Z,7.00
2023-07-02T02:10:20.822Z,7.68
2023-07-02T02:13:23.107Z,8.30
2023-07-02T02:16:25.569Z,9.80
2023-07-02T02:19:27.537Z,9.55
2023-07-02T02:22:30.772Z,10.57
2023-07-02T02:25:32.665Z,10.95
2023-07-02T02:28:37.359Z,11.45
2023-07-02T02:31:39.798Z,10.93
2023-07-02T02:34:42.144Z,12.48
2023-07-02T02:37:45.644Z,11.95
2023-07-02T02:40:48.561Z,12.95
2023-07-02T02:43:53.935Z,14.13
2023-07-02T02:46:56.920Z,13.20
2023-07-02T02:49:58.981Z,13.75
2023-07-02T02:53:02.217Z,14.18
2023-07-02T02:56:05.026Z,15.00
2023-07-02T02:59:06.961Z,14.95
2023-07-02T03:02:08.956Z,14.45
2023-07-02T03:08:14.328Z,15.25
2023-07-02T03:11:16.147Z,14.35
2023-07-02T03:14:18.882Z,14.15
2023-07-02T03:17:21.833Z,14.27
2023-07-02T03:20:23.860Z,14.27
2023-07-02T03:26:29.281Z,14.25
2023-07-02T03:29:31.100Z,14.20
2023-07-02T03:32:33.038Z,14.65
2023-07-02T03:35:35.202Z,14.40
2023-07-02T03:41:40.369Z,14.85
2023-07-02T03:44:42.233Z,14.48
2023-07-02T03:47:44.407Z,14.80
2023-07-02T03:50:46.697Z,15.52
2023-07-02T03:53:50.361Z,15.55
2023-07-02T03:56:52.390Z,15.18
2023-07-02T04:02:56.151Z,15.48
2023-07-02T04:05:58.277Z,15.18
2023-07-02T04:09:01.482Z,16.00
2023-07-02T04:12:04.123Z,14.90
2023-07-02T04:15:08.170Z,15.40
2023-07-02T04:18:10.104Z,14.05
2023-07-02T04:21:12.097Z,13.73
2023-07-02T04:24:15.473Z,14.25
2023-07-02T04:27:48.222Z,14.68
2023-07-02T04:30:43.323Z,13.40
2023-07-02T04:33:45.170Z,13.50
2023-07-02T04:36:47.103Z,12.93
2023-07-02T04:42:58.971Z,12.25
2023-07-02T04:46:01.085Z,13.05
2023-07-02T04:49:04.060Z,12.15
2023-07-02T04:52:06.607Z,12.82
2023-07-02T04:55:10.638Z,12.57
2023-07-02T04:58:12.853Z,12.80
2023-07-02T05:01:14.882Z,11.60
2023-07-02T05:07:18.798Z,10.85
2023-07-02T05:13:23.881Z,10.25
2023-07-02T05:16:25.769Z,10.40
2023-07-02T05:19:27.930Z,9.30
2023-07-02T05:22:29.795Z,8.27
2023-07-02T05:25:34.839Z,8.75
2023-07-02T05:28:36.987Z,8.98
2023-07-02T05:31:38.947Z,8.90
2023-07-02T05:34:40.962Z,8.60
2023-07-02T05:37:43.039Z,8.43
2023-07-02T05:40:46.855Z,8.93
2023-07-02T05:43:49.086Z,8.40
2023-07-02T05:49:52.513Z,7.13
2023-07-02T05:52:54.578Z,7.40
2023-07-02T05:58:59.805Z,6.53
2023-07-02T06:02:02.105Z,5.97
2023-07-02T06:05:04.706Z,5.93
2023-07-02T06:08:06.758Z,5.93
2023-07-02T06:11:10.864Z,4.95
2023-07-02T06:14:12.692Z,5.90
2023-07-02T06:17:14.706Z,5.32
2023-07-02T06:23:18.439Z,4.95
2023-07-02T06:26:21.639Z,4.50
2023-07-02T06:29:24.527Z,5.07
2023-07-02T06:32:26.715Z,4.55
2023-07-02T06:35:28.593Z,4.78
2023-07-02T06:38:30.526Z,4.93
2023-07-02T06:44:35.619Z,5.05
2023-07-02T06:50:39.758Z,4.85
2023-07-02T06:53:41.812Z,4.65
2023-07-02T06:59:48.508Z,5.68
2023-07-02T07:02:51.695Z,5.07
2023-07-02T07:05:53.809Z,5.03
2023-07-02T07:08:55.697Z,4.75
2023-07-02T07:11:59.085Z,4.40
2023-07-02T07:15:00.973Z,4.75
2023-07-02T07:18:03.810Z,4.88
2023-07-02T07:21:06.209Z,5.07
2023-07-02T07:24:08.161Z,5.18
2023-07-02T07:30:15.523Z,5.60
2023-07-02T07:33:17.464Z,4.57
2023-07-02T07:36:19.332Z,4.80
2023-07-02T07:39:21.215Z,4.55
2023-07-02T07:42:25.535Z,4.82
2023-07-02T07:45:27.515Z,4.45
2023-07-02T07:51:31.339Z,4.57
2023-07-02T07:57:40.076Z,4.70
2023-07-02T08:00:42.193Z,5.00
2023-07-02T08:06:45.867Z,5.18
2023-07-02T08:09:47.817Z,5.03
2023-07-02T08:12:53.286Z,4.65
2023-07-02T08:15:55.164Z,4.60
2023-07-02T08:18:56.998Z,5.65
2023-07-02T08:21:58.887Z,4.40
2023-07-02T08:25:00.868Z,4.78
2023-07-02T08:31:06.290Z,4.45
2023-07-02T08:34:08.330Z,5.30
2023-07-02T08:40:19.329Z,4.88
2023-07-02T08:43:24.589Z,4.40
2023-07-02T08:46:26.601Z,4.38
2023-07-02T08:52:30.585Z,4.63
2023-07-02T08:55:32.869Z,4.70
2023-07-02T08:58:36.398Z,5.80
2023-07-02T09:01:46.446Z,4.93
2023-07-02T09:04:48.446Z,4.70
2023-07-02T09:11:09.730Z,5.25
2023-07-02T09:14:13.070Z,5.13
2023-07-02T09:17:15.128Z,5.40
2023-07-02T09:20:17.319Z,4.88
2023-07-02T09:23:19.565Z,5.22
2023-07-02T09:32:28.422Z,5.28
2023-07-02T09:35:30.680Z,4.70
2023-07-02T09:41:35.218Z,4.35
2023-07-02T09:44:40.426Z,4.32
2023-07-02T09:47:46.932Z,4.78
2023-07-02T09:50:51.097Z,4.57
2023-07-02T09:53:53.555Z,4.07
2023-07-02T09:56:55.712Z,3.70
2023-07-02T10:00:00.839Z,4.53
2023-07-02T10:03:03.095Z,4.00
2023-07-02T10:06:08.779Z,4.00
2023-07-02T10:09:11.738Z,4.95
2023-07-02T10:12:18.621Z,4.13
2023-07-02T10:15:27.672Z,4.30
2023-07-02T10:18:29.626Z,4.85
2023-07-02T10:24:34.031Z,4.00
2023-07-02T10:27:37.981Z,4.00
2023-07-02T10:30:41.504Z,3.83
2023-07-02T10:33:45.006Z,3.58
2023-07-02T10:36:46.907Z,3.97
2023-07-02T10:39:48.871Z,3.80
2023-07-02T10:45:55.281Z,3.85
2023-07-02T10:48:58.309Z,3.75
2023-07-02T10:52:01.872Z,3.70
2023-07-02T10:55:05.602Z,4.47
2023-07-02T10:58:09.100Z,3.92
2023-07-02T11:01:12.825Z,3.75
2023-07-02T11:04:15.024Z,4.40
2023-07-02T11:07:23.890Z,3.60
2023-07-02T11:10:26.334Z,4.15
2023-07-02T11:13:28.279Z,4.20
2023-07-02T11:19:33.818Z,4.00
2023-07-02T11:22:38.632Z,4.32
2023-07-02T11:25:40.771Z,4.80
2023-07-02T11:28:51.561Z,3.75
2023-07-02T11:31:54.808Z,4.00
2023-07-02T11:34:57.602Z,3.90
2023-07-02T11:37:59.536Z,3.63
2023-07-02T11:41:04.081Z,4.18
2023-07-02T11:44:06.318Z,3.88
2023-07-02T11:47:09.891Z,3.92
2023-07-02T11:50:24.536Z,3.85
2023-07-02T11:53:27.833Z,3.75
2023-07-02T11:56:29.833Z,4.00
2023-07-02T12:02:35.026Z,3.72
2023-07-02T12:05:36.940Z,4.20
2023-07-02T12:11:40.868Z,3.55
2023-07-02T12:14:44.595Z,3.75
2023-07-02T12:17:47.971Z,7.28
2023-07-02T12:20:49.906Z,4.13
2023-07-02T12:26:53.385Z,3.47
2023-07-02T12:32:58.711Z,3.95
2023-07-02T12:36:00.697Z,4.05
2023-07-02T12:42:07.782Z,4.10
2023-07-02T12:45:10.792Z,4.03
2023-07-02T12:48:14.170Z,4.03
2023-07-02T12:51:18.045Z,4.38
2023-07-02T12:54:21.283Z,4.13
2023-07-02T12:57:23.198Z,5.30
2023-07-02T13:03:31.670Z,4.43
2023-07-02T13:06:36.024Z,4.45
2023-07-02T13:09:42.635Z,4.20
2023-07-02T13:12:45.145Z,4.40
2023-07-02T13:15:47.281Z,4.30
2023-07-02T13:18:50.821Z,4.35
2023-07-02T13:21:52.998Z,3.80
2023-07-02T13:24:54.954Z,4.05
2023-07-02T13:30:58.880Z,4.63
2023-07-02T13:37:05.087Z,4.15
2023-07-02T13:40:09.760Z,4.20
2023-07-02T13:43:11.605Z,3.90
2023-07-02T13:46:13.375Z,3.67
2023-07-02T13:49:16.664Z,3.85
2023-07-02T13:52:18.490Z,3.05
2023-07-02T13:55:22.097Z,3.03
2023-07-02T13:58:29.956Z,3.30
2023-07-02T14:01:35.020Z,3.60
2023-07-02T14:04:37.101Z,3.63
2023-07-02T14:10:40.944Z,3.55
2023-07-02T14:16:46.364Z,3.50
2023-07-02T14:19:48.220Z,3.33
2023-07-02T14:22:50.069Z,3.10
2023-07-02T14:25:51.843Z,3.08
2023-07-02T14:28:54.025Z,3.55
2023-07-02T14:31:57.638Z,3.72
2023-07-02T14:34:59.603Z,3.40
2023-07-02T14:38:01.561Z,2.83
2023-07-02T14:41:04.206Z,3.28
2023-07-02T14:44:06.307Z,3.70
2023-07-02T14:47:09.495Z,2.95
2023-07-02T14:50:12.265Z,3.53
2023-07-02T14:53:14.133Z,2.75
2023-07-02T14:59:17.802Z,3.25
2023-07-02T15:02:21.397Z,3.17
2023-07-02T15:05:23.395Z,2.92
2023-07-02T15:08:25.314Z,3.67
2023-07-02T15:11:29.155Z,2.90
2023-07-02T15:14:31.594Z,3.40
2023-07-02T15:17:35.187Z,3.22
2023-07-02T15:20:37.452Z,3.40
2023-07-02T15:23:39.281Z,3.47
2023-07-02T15:26:43.278Z,2.70
2023-07-02T15:29:45.277Z,3.05
2023-07-02T15:32:48.556Z,3.35
2023-07-02T15:35:51.036Z,3.05
2023-07-02T15:38:53.279Z,2.83
2023-07-02T15:41:55.359Z,3.42
2023-07-02T15:48:01.624Z,3.13
2023-07-02T15:51:04.795Z,2.67
2023-07-02T15:54:07.958Z,3.38
2023-07-02T15:57:09.927Z,2.90
2023-07-02T16:03:21.947Z,2.88
2023-07-02T16:06:32.855Z,3.15
2023-07-02T16:09:34.725Z,3.22
2023-07-02T16:12:36.576Z,3.20
2023-07-02T16:15:39.791Z,3.10
2023-07-02T16:18:43.305Z,3.00
2023-07-02T16:21:45.952Z,3.63
2023-07-02T16:24:48.003Z,3.25
2023-07-02T16:27:49.897Z,3.25
2023-07-02T16:33:54.842Z,3.67
2023-07-02T16:36:58.228Z,3.00
2023-07-02T16:40:00.247Z,3.47
2023-07-02T16:43:04.166Z,3.33
2023-07-02T16:46:06.159Z,3.35
2023-07-02T16:49:10.561Z,3.40
2023-07-02T16:52:12.415Z,3.10
2023-07-02T16:55:14.589Z,3.17
2023-07-02T16:58:16.431Z,3.30
2023-07-02T17:04:22.887Z,3.92
2023-07-02T17:07:25.058Z,3.40
2023-07-02T17:10:27.043Z,3.50
2023-07-02T17:16:30.877Z,3.47
2023-07-02T17:19:36.617Z,3.50
2023-07-02T17:22:38.868Z,3.38
2023-07-02T17:25:40.842Z,4.20
2023-07-02T17:31:48.113Z,3.80
2023-07-02T17:34:51.530Z,3.50
2023-07-02T17:37:53.467Z,4.28
2023-07-02T17:43:57.154Z,3.67
2023-07-02T17:47:20.628Z,3.72
2023-07-02T17:50:23.946Z,3.45
2023-07-02T17:53:28.636Z,3.85
2023-07-02T17:56:31.185Z,3.28
2023-07-02T17:59:34.864Z,3.55
2023-07-02T18:02:39.677Z,3.70
2023-07-02T18:05:44.086Z,3.20
2023-07-02T18:08:46.427Z,3.50
2023-07-02T18:11:48.265Z,2.90
2023-07-02T18:14:50.664Z,3.42
2023-07-02T18:17:52.744Z,4.00
2023-07-02T18:20:55.960Z,3.47
2023-07-02T18:23:59.530Z,2.90
2023-07-02T18:27:05.590Z,3.75
2023-07-02T18:30:09.221Z,3.00
2023-07-02T18:33:11.621Z,3.00
2023-07-02T18:36:17.696Z,3.45
2023-07-02T18:39:20.418Z,3.17
2023-07-02T18:42:23.453Z,3.13
2023-07-02T18:45:27.817Z,3.25
2023-07-02T18:48:29.687Z,3.33
2023-07-02T18:51:33.090Z,3.75
2023-07-02T18:54:36.393Z,3.25
2023-07-02T18:57:39.468Z,2.90
2023-07-02T19:00:41.406Z,3.00
2023-07-02T19:06:49.903Z,3.10
2023-07-02T19:09:51.822Z,3.17
2023-07-02T19:12:53.798Z,2.70
2023-07-02T19:15:55.940Z,3.20
2023-07-02T19:18:57.975Z,2.75
2023-07-02T19:22:01.268Z,3.08
2023-07-02T19:25:03.422Z,2.90
2023-07-02T19:28:08.065Z,2.67
2023-07-02T19:31:09.978Z,2.78
2023-07-02T19:37:15.337Z,2.90
2023-07-02T19:40:17.684Z,2.83
2023-07-02T19:43:19.555Z,2.90
2023-07-02T19:46:21.561Z,2.60
2023-07-02T19:49:23.568Z,2.50
2023-07-02T19:55:29.742Z,2.20
2023-07-02T20:01:33.370Z,2.35
2023-07-02T20:07:39.175Z,2.45
2023-07-02T20:10:41.123Z,2.75
2023-07-02T20:13:43.326Z,2.30
2023-07-02T20:16:45.309Z,2.95
2023-07-02T20:22:53.752Z,2.70
2023-07-02T20:25:55.570Z,2.70
2023-07-02T20:28:57.504Z,2.45
2023-07-02T20:35:01.201Z,2.23
2023-07-02T20:38:04.731Z,2.22
2023-07-02T20:41:06.611Z,2.85
2023-07-02T20:44:08.660Z,2.95
2023-07-02T20:50:14.532Z,2.80
2023-07-02T20:53:18.055Z,2.28
2023-07-02T20:56:20.013Z,2.13
2023-07-02T21:02:25.105Z,2.70
2023-07-02T21:05:27.486Z,2.42
2023-07-02T21:08:32.509Z,2.30
2023-07-02T21:11:34.997Z,2.45
2023-07-02T21:14:37.256Z,2.83
2023-07-02T21:17:39.334Z,3.00
2023-07-02T21:20:43.330Z,2.85
2023-07-02T21:23:46.535Z,2.50
2023-07-02T21:26:48.981Z,2.40
2023-07-02T21:29:53.857Z,2.50
2023-07-02T21:32:56.593Z,2.53
2023-07-02T21:36:02.337Z,2.60
2023-07-02T21:39:05.686Z,2.45
2023-07-02T21:42:08.286Z,2.50
2023-07-02T21:45:11.671Z,2.50
2023-07-02T21:48:16.500Z,2.30
2023-07-02T21:54:22.399Z,2.22
2023-07-02T21:57:24.316Z,2.95
2023-07-02T22:00:26.586Z,2.35
2023-07-02T22:03:28.371Z,2.53
2023-07-02T22:06:30.474Z,2.53
2023-07-02T22:09:34.890Z,2.42
2023-07-02T22:12:36.657Z,3.08
2023-07-02T22:15:40.133Z,2.90
2023-07-02T22:21:46.050Z,2.47
2023-07-02T22:24:54.439Z,2.78
2023-07-02T22:27:57.133Z,2.80
2023-07-02T22:30:59.282Z,3.10
2023-07-02T22:34:03.830Z,2.55
2023-07-02T22:37:06.557Z,2.50
2023-07-02T22:40:12.003Z,2.95
2023-07-02T22:43:14.135Z,2.28
2023-07-02T22:49:20.589Z,2.50
2023-07-02T22:52:22.895Z,2.70
2023-07-02T22:55:29.048Z,2.75
2023-07-02T22:58:31.016Z,2.17
2023-07-02T23:01:33.000Z,2.88
2023-07-02T23:07:36.816Z,3.50
2023-07-02T23:10:39.963Z,2.75
2023-07-02T23:13:41.911Z,2.60
2023-07-02T23:16:46.612Z,3.28
2023-07-02T23:19:49.057Z,2.90
2023-07-02T23:22:51.998Z,3.08
2023-07-02T23:25:55.378Z,3.00
2023-07-02T23:28:57.482Z,3.15
2023-07-02T23:32:02.878Z,2.63
2023-07-02T23:35:09.997Z,2.50
2023-07-02T23:38:11.852Z,3.15
2023-07-02T23:41:15.086Z,2.88
2023-07-02T23:44:16.961Z,2.80
2023-07-02T23:47:18.830Z,3.00
2023-07-02T23:50:20.805Z,3.50
2023-07-02T23:56:25.897Z,2.50
2023-07-02T23:59:27.738Z,2.70
